createdAt,value
2023-02-03T00:03:35.125Z,100758.34
2023-02-03T00:08:38.403Z,100755.04
2023-02-03T00:13:40.326Z,100761.89
2023-02-03T00:18:41.841Z,100764.02
2023-02-03T00:23:43.490Z,100766.86
2023-02-03T00:28:45.534Z,100761.98
2023-02-03T00:33:47.802Z,100759.31
2023-02-03T00:38:50.256Z,100760.87
2023-02-03T00:43:51.927Z,100765.74
2023-02-03T00:48:53.420Z,100765.45
2023-02-03T00:53:54.917Z,100771.45
2023-02-03T00:58:56.509Z,100774.41
2023-02-03T01:03:58.016Z,100774.41
2023-02-03T01:09:02.450Z,100774.05
2023-02-03T01:14:03.831Z,100776.93
2023-02-03T01:19:05.959Z,100770.61
2023-02-03T01:24:09.124Z,100783.06
2023-02-03T01:29:10.868Z,100783.45
2023-02-03T01:34:14.324Z,100790.37
2023-02-03T01:39:16.010Z,100791.65
2023-02-03T01:44:39.858Z,100784.80
2023-02-03T01:49:44.996Z,100782.40
2023-02-03T01:54:49.755Z,100777.09
2023-02-03T01:59:53.974Z,100775.75
2023-02-03T02:05:34.352Z,100769.62
2023-02-03T02:10:36.336Z,100766.30
2023-02-03T02:15:50.066Z,100767.61
2023-02-03T02:21:01.786Z,100770.13
2023-02-03T02:26:34.511Z,100765.19
2023-02-03T02:31:51.726Z,100756.39
2023-02-03T02:37:05.368Z,100758.88
2023-02-03T02:42:37.796Z,100760.11
2023-02-03T02:47:39.534Z,100766.83
2023-02-03T02:52:44.918Z,100756.80
2023-02-03T02:57:48.617Z,100752.98
2023-02-03T03:02:50.288Z,100754.27
2023-02-03T03:07:57.682Z,100758.04
2023-02-03T03:13:08.191Z,100758.39
2023-02-03T03:18:16.480Z,100756.04
2023-02-03T03:23:25.346Z,100759.94
2023-02-03T03:28:35.423Z,100761.21
2023-02-03T03:33:37.517Z,100754.96
2023-02-03T03:38:44.296Z,100756.99
2023-02-03T03:43:49.596Z,100754.88
2023-02-03T03:48:55.799Z,100754.36
2023-02-03T03:54:01.260Z,100743.99
2023-02-03T03:59:04.878Z,100742.97
2023-02-03T04:04:09.923Z,100748.73
2023-02-03T04:09:11.593Z,100747.73
2023-02-03T04:14:13.125Z,100748.40
2023-02-03T04:19:14.607Z,100745.32
2023-02-03T04:24:16.149Z,100747.16
2023-02-03T04:29:17.790Z,100743.44
2023-02-03T04:34:19.308Z,100739.56
2023-02-03T04:39:21.538Z,100739.89
2023-02-03T04:44:23.075Z,100741.67
2023-02-03T04:49:24.579Z,100740.30
2023-02-03T04:54:26.251Z,100745.02
2023-02-03T04:59:28.202Z,100742.19
2023-02-03T05:04:30.334Z,100742.42
2023-02-03T05:09:31.879Z,100742.41
2023-02-03T05:14:33.386Z,100737.02
2023-02-03T05:19:34.851Z,100730.90
2023-02-03T05:24:36.359Z,100728.70
2023-02-03T05:29:37.987Z,100727.69
2023-02-03T05:34:41.371Z,100726.29
2023-02-03T05:39:43.834Z,100723.11
2023-02-03T05:44:45.315Z,100721.34
2023-02-03T05:49:46.864Z,100715.30
2023-02-03T05:54:48.327Z,100712.42
2023-02-03T05:59:49.919Z,100711.33
2023-02-03T06:04:51.481Z,100707.59
2023-02-03T06:09:52.989Z,100703.84
2023-02-03T06:14:54.568Z,100705.05
2023-02-03T06:19:56.055Z,100706.77
2023-02-03T06:24:57.660Z,100698.95
2023-02-03T06:29:59.181Z,100696.67
2023-02-03T06:35:00.717Z,100692.44
2023-02-03T06:40:02.825Z,100691.99
2023-02-03T06:45:05.232Z,100680.06
2023-02-03T06:50:08.162Z,100662.31
2023-02-03T06:55:10.763Z,100651.21
2023-02-03T07:00:16.164Z,100644.10
2023-02-03T07:05:19.753Z,100635.64
2023-02-03T07:10:21.609Z,100634.59
2023-02-03T07:15:23.073Z,100627.12
2023-02-03T07:20:26.895Z,100619.88
2023-02-03T07:25:28.727Z,100614.99
2023-02-03T07:30:30.719Z,100609.11
2023-02-03T07:35:32.409Z,100592.92
2023-02-03T07:40:33.885Z,100593.29
2023-02-03T07:45:35.797Z,100588.38
2023-02-03T07:50:37.568Z,100575.17
2023-02-03T07:55:40.250Z,100562.39
2023-02-03T08:00:41.760Z,100550.94
2023-02-03T08:05:43.250Z,100544.29
2023-02-03T08:10:44.740Z,100536.38
2023-02-03T08:15:47.614Z,100528.84
2023-02-03T08:20:50.850Z,100522.80
2023-02-03T08:25:52.992Z,100512.09
2023-02-03T08:30:54.685Z,100516.77
2023-02-03T08:35:57.081Z,100513.48
2023-02-03T08:40:58.661Z,100501.61
2023-02-03T08:46:03.750Z,100501.64
2023-02-03T08:51:13.456Z,100495.58
2023-02-03T08:56:14.962Z,100488.61
2023-02-03T09:01:16.563Z,100473.38
2023-02-03T09:06:19.105Z,100455.72
2023-02-03T09:11:21.989Z,100451.29
2023-02-03T09:16:24.585Z,100448.44
2023-02-03T09:21:34.492Z,100439.80
2023-02-03T09:26:42.898Z,100427.31
2023-02-03T09:31:46.991Z,100421.27
2023-02-03T09:36:49.224Z,100417.61
2023-02-03T09:42:10.195Z,100407.28
2023-02-03T09:47:43.876Z,100395.22
2023-02-03T09:52:46.381Z,100374.52
2023-02-03T09:57:57.088Z,100369.93
2023-02-03T10:03:14.955Z,100352.86
2023-02-03T10:08:36.665Z,100339.10
2023-02-03T10:14:03.213Z,100323.14
2023-02-03T10:19:17.227Z,100306.42
2023-02-03T10:24:26.528Z,100292.54
2023-02-03T10:29:38.365Z,100278.48
2023-02-03T10:34:42.273Z,100267.79
2023-02-03T10:39:49.472Z,100253.86
2023-02-03T10:44:59.665Z,100238.81
2023-02-03T10:50:08.079Z,100221.50
2023-02-03T10:55:25.569Z,100209.00
2023-02-03T11:00:34.355Z,100190.33
2023-02-03T11:05:35.902Z,100176.69
2023-02-03T11:10:40.858Z,100160.58
2023-02-03T11:15:55.867Z,100137.09
2023-02-03T11:20:58.960Z,100119.59
2023-02-03T11:26:10.657Z,100111.11
2023-02-03T11:31:25.255Z,100086.36
2023-02-03T11:36:29.127Z,100066.81
2023-02-03T11:41:37.579Z,100046.14
2023-02-03T11:46:40.424Z,100030.52
2023-02-03T11:52:14.351Z,100011.14
2023-02-03T11:57:30.718Z,99987.39
2023-02-03T12:03:03.372Z,99969.39
2023-02-03T12:08:27.276Z,99954.79
2023-02-03T12:14:01.695Z,99936.63
2023-02-03T12:19:32.382Z,99925.24
2023-02-03T12:24:55.146Z,99916.25
2023-02-03T12:30:06.764Z,99912.00
2023-02-03T12:35:21.202Z,99899.95
2023-02-03T12:40:37.185Z,99891.13
2023-02-03T12:45:40.283Z,99876.20
2023-02-03T12:50:56.469Z,99880.09
2023-02-03T12:56:12.258Z,99863.95
2023-02-03T13:01:23.445Z,99852.77
2023-02-03T13:06:39.632Z,99830.72
2023-02-03T13:11:46.468Z,99806.45
2023-02-03T13:16:53.893Z,99778.96
2023-02-03T13:21:55.524Z,99758.59
2023-02-03T13:27:07.322Z,99742.48
2023-02-03T13:32:30.218Z,99725.69
2023-02-03T13:37:42.682Z,99713.29
2023-02-03T13:43:07.050Z,99687.67
2023-02-03T13:48:18.724Z,99671.72
2023-02-03T13:53:26.167Z,99655.11
2023-02-03T13:58:37.272Z,99645.78
2023-02-03T14:03:38.792Z,99634.91
2023-02-03T14:08:40.373Z,99625.92
2023-02-03T14:13:41.906Z,99613.55
2023-02-03T14:18:46.161Z,99609.80
2023-02-03T14:23:57.186Z,99600.28
2023-02-03T14:29:00.755Z,99594.16
2023-02-03T14:34:14.534Z,99582.98
2023-02-03T14:39:20.113Z,99572.48
2023-02-03T14:44:30.796Z,99557.55
2023-02-03T14:50:07.052Z,99547.39
2023-02-03T14:55:43.048Z,99543.84
2023-02-03T15:00:44.842Z,99529.43
2023-02-03T15:06:04.992Z,99524.19
2023-02-03T15:11:30.596Z,99509.29
2023-02-03T15:16:32.156Z,99496.06
2023-02-03T15:21:41.880Z,99486.73
2023-02-03T15:26:56.515Z,99478.61
2023-02-03T15:32:10.078Z,99463.92
2023-02-03T15:37:18.925Z,99453.95
2023-02-03T15:42:49.980Z,99452.39
2023-02-03T15:48:00.171Z,99449.20
2023-02-03T15:53:09.819Z,99438.20
2023-02-03T15:58:25.161Z,99431.92
2023-02-03T16:03:46.365Z,99424.30
2023-02-03T16:08:49.057Z,99417.88
2023-02-03T16:13:51.668Z,99409.77
2023-02-03T16:18:56.882Z,99402.82
2023-02-03T16:23:59.668Z,99393.85
2023-02-03T16:29:22.980Z,99384.38
2023-02-03T16:34:42.878Z,99379.65
2023-02-03T16:40:03.303Z,99380.84
2023-02-03T16:45:32.263Z,99374.57
2023-02-03T16:50:52.544Z,99363.77
2023-02-03T16:55:56.591Z,99355.46
2023-02-03T17:01:00.669Z,99342.60
2023-02-03T17:06:06.155Z,99341.27
2023-02-03T17:11:12.939Z,99335.52
2023-02-03T17:16:17.694Z,99338.71
2023-02-03T17:21:22.557Z,99341.60
2023-02-03T17:26:24.104Z,99341.27
2023-02-03T17:31:25.953Z,99333.98
2023-02-03T17:36:27.676Z,99341.77
2023-02-03T17:57:26.363Z,99340.42
2023-02-03T18:02:27.885Z,99339.90
2023-02-03T18:07:29.378Z,99342.45
2023-02-03T18:12:31.071Z,99342.95
2023-02-03T18:17:32.645Z,99354.63
2023-02-03T18:22:34.672Z,99354.61
2023-02-03T18:27:36.616Z,99354.61
2023-02-03T18:32:38.437Z,99356.99
2023-02-03T18:37:39.997Z,99356.99
2023-02-03T18:42:41.524Z,99356.98
2023-02-03T18:47:43.043Z,99362.57
2023-02-03T18:52:44.697Z,99367.48
2023-02-03T18:57:46.976Z,99379.83
2023-02-03T19:02:50.051Z,99380.33
2023-02-03T19:07:51.641Z,99387.45
2023-02-03T19:12:53.126Z,99387.46
2023-02-03T19:17:54.722Z,99383.73
2023-02-03T19:22:56.826Z,99391.33
2023-02-03T19:27:58.428Z,99396.23
2023-02-03T19:33:00.044Z,99403.17
2023-02-03T19:38:01.992Z,99404.52
2023-02-03T19:43:05.087Z,99403.33
2023-02-03T19:48:07.402Z,99407.39
2023-02-03T19:53:09.613Z,99399.27
2023-02-03T19:58:12.045Z,99398.41
2023-02-03T20:03:13.677Z,99400.77
2023-02-03T20:08:16.684Z,99395.17
2023-02-03T20:13:19.175Z,99397.23
2023-02-03T20:18:21.387Z,99411.14
2023-02-03T20:23:23.809Z,99414.02
2023-02-03T20:28:27.845Z,99420.77
2023-02-03T20:33:30.715Z,99422.97
2023-02-03T20:38:32.239Z,99417.40
2023-02-03T20:43:34.000Z,99429.73
2023-02-03T20:48:35.468Z,99429.37
2023-02-03T20:53:38.713Z,99433.80
2023-02-03T20:58:42.491Z,99445.48
2023-02-03T21:04:03.182Z,99458.83
2023-02-03T21:09:16.388Z,99457.46
2023-02-03T21:14:29.148Z,99443.42
2023-02-03T21:19:33.523Z,99453.91
2023-02-03T21:24:36.723Z,99477.93
2023-02-03T21:29:40.418Z,99492.65
2023-02-03T21:34:45.083Z,99493.12
2023-02-03T21:39:48.177Z,99480.46
2023-02-03T21:44:49.664Z,99487.75
2023-02-03T21:49:51.165Z,99497.03
2023-02-03T21:54:52.684Z,99499.71
2023-02-03T21:59:54.188Z,99505.98
2023-02-03T22:04:57.720Z,99526.42
2023-02-03T22:09:59.208Z,99527.05
2023-02-03T22:15:00.718Z,99538.55
2023-02-03T22:20:02.533Z,99547.03
2023-02-03T22:25:04.181Z,99554.27
2023-02-03T22:30:06.561Z,99554.91
2023-02-03T22:35:08.998Z,99559.48
2023-02-03T22:40:11.713Z,99559.15
2023-02-03T22:45:14.085Z,99556.57
2023-02-03T22:50:17.440Z,99562.13
2023-02-03T22:55:22.921Z,99571.20
2023-02-03T23:00:25.816Z,99587.21
2023-02-03T23:05:27.659Z,99589.75
2023-02-03T23:10:32.751Z,99595.77
2023-02-03T23:15:34.491Z,99604.39
2023-02-03T23:20:36.095Z,99605.06
2023-02-03T23:25:37.560Z,99608.38
2023-02-03T23:30:39.074Z,99611.86
2023-02-03T23:35:46.456Z,99618.22
2023-02-03T23:40:48.003Z,99639.98
2023-02-03T23:45:49.535Z,99656.23
2023-02-03T23:50:51.772Z,99673.42
2023-02-03T23:55:53.254Z,99684.21
